createdAt,value
2022-11-04T00:01:45.059Z,1.58
2022-11-04T00:03:49.796Z,1.20
2022-11-04T00:05:51.429Z,1.00
2022-11-04T00:08:11.448Z,2.45
2022-11-04T00:10:13.054Z,1.10
2022-11-04T00:12:26.650Z,1.52
2022-11-04T00:14:29.885Z,0.70
2022-11-04T00:16:50.316Z,0.82
2022-11-04T00:18:52.302Z,1.30
2022-11-04T00:21:19.755Z,1.35
2022-11-04T00:23:40.243Z,1.13
2022-11-04T00:26:00.488Z,4.72
2022-11-04T00:28:26.176Z,1.27
2022-11-04T00:30:27.838Z,1.30
2022-11-04T00:32:48.195Z,0.85
2022-11-04T00:34:50.050Z,1.05
2022-11-04T00:36:51.641Z,1.08
2022-11-04T00:38:53.683Z,8.27
2022-11-04T00:40:55.287Z,1.65
2022-11-04T00:42:56.905Z,1.58
2022-11-04T00:44:58.505Z,1.15
2022-11-04T00:47:00.247Z,1.08
2022-11-04T00:49:01.920Z,0.95
2022-11-04T00:51:03.646Z,1.15
2022-11-04T00:53:05.599Z,1.30
2022-11-04T00:55:07.983Z,1.88
2022-11-04T00:57:13.644Z,1.10
2022-11-04T00:59:15.755Z,1.35
2022-11-04T01:01:18.738Z,5.07
2022-11-04T01:03:20.696Z,1.90
2022-11-04T01:05:22.351Z,1.17
2022-11-04T01:07:24.079Z,1.73
2022-11-04T01:09:25.655Z,1.52
2022-11-04T01:11:29.505Z,2.50
2022-11-04T01:13:31.822Z,1.30
2022-11-04T01:15:33.418Z,1.20
2022-11-04T01:17:37.995Z,3.22
2022-11-04T01:19:39.599Z,1.23
2022-11-04T01:21:41.150Z,2.17
2022-11-04T01:23:44.946Z,1.48
2022-11-04T01:25:47.077Z,2.70
2022-11-04T01:27:48.697Z,1.48
2022-11-04T01:29:50.282Z,2.40
2022-11-04T01:31:51.862Z,2.55
2022-11-04T01:33:55.124Z,6.10
2022-11-04T01:36:00.194Z,1.13
2022-11-04T01:38:01.923Z,1.30
2022-11-04T01:40:03.939Z,5.93
2022-11-04T01:42:05.614Z,1.45
2022-11-04T01:44:41.279Z,2.67
2022-11-04T01:46:45.945Z,1.40
2022-11-04T01:48:47.597Z,1.20
2022-11-04T01:50:51.084Z,3.40
2022-11-04T01:53:02.709Z,1.40
2022-11-04T01:55:09.318Z,3.28
2022-11-04T01:57:16.110Z,2.75
2022-11-04T01:59:29.843Z,1.30
2022-11-04T02:01:31.797Z,1.75
2022-11-04T02:03:36.835Z,2.58
2022-11-04T02:05:38.936Z,2.67
2022-11-04T02:07:40.751Z,0.95
2022-11-04T02:09:42.584Z,1.38
2022-11-04T02:12:02.972Z,0.82
2022-11-04T02:14:04.621Z,1.40
2022-11-04T02:16:06.382Z,1.20
2022-11-04T02:18:19.365Z,1.15
2022-11-04T02:21:00.038Z,4.03
2022-11-04T02:23:32.099Z,1.10
2022-11-04T02:26:06.261Z,5.03
2022-11-04T02:28:41.578Z,0.80
2022-11-04T02:31:12.151Z,2.88
2022-11-04T02:33:21.707Z,1.33
2022-11-04T02:35:38.258Z,1.45
2022-11-04T02:38:14.876Z,3.55
2022-11-04T02:40:28.070Z,5.53
2022-11-04T02:42:42.125Z,1.48
2022-11-04T02:44:56.015Z,1.98
2022-11-04T02:47:11.040Z,0.85
2022-11-04T02:49:15.902Z,0.85
2022-11-04T02:51:33.360Z,1.30
2022-11-04T02:54:33.497Z,1.15
2022-11-04T02:56:40.197Z,0.93
2022-11-04T02:58:45.594Z,4.03
2022-11-04T03:00:48.116Z,2.47
2022-11-04T03:03:00.443Z,6.93
2022-11-04T03:05:02.900Z,4.78
2022-11-04T03:07:08.134Z,3.83
2022-11-04T03:09:12.107Z,1.00
2022-11-04T03:11:22.667Z,2.97
2022-11-04T03:13:31.808Z,1.00
2022-11-04T03:15:35.123Z,1.35
2022-11-04T03:17:43.803Z,1.08
2022-11-04T03:19:54.009Z,1.38
2022-11-04T03:21:59.466Z,2.47
2022-11-04T03:24:01.961Z,1.80
2022-11-04T03:26:22.731Z,1.40
2022-11-04T03:28:56.268Z,1.08
2022-11-04T03:31:01.284Z,2.13
2022-11-04T03:33:18.604Z,1.35
2022-11-04T03:35:20.528Z,1.00
2022-11-04T03:37:22.155Z,1.27
2022-11-04T03:39:23.903Z,0.93
2022-11-04T03:41:36.548Z,1.13
2022-11-04T03:43:39.809Z,4.45
2022-11-04T03:45:42.389Z,1.08
2022-11-04T03:47:44.243Z,2.92
2022-11-04T03:49:49.331Z,1.40
2022-11-04T03:51:51.644Z,1.73
2022-11-04T03:53:53.673Z,2.30
2022-11-04T03:56:07.526Z,1.58
2022-11-04T03:58:34.659Z,1.52
2022-11-04T04:00:43.105Z,2.53
2022-11-04T04:02:50.768Z,1.55
2022-11-04T04:04:57.485Z,1.30
2022-11-04T04:07:38.572Z,4.22
2022-11-04T04:09:44.785Z,2.00
2022-11-04T04:11:55.696Z,1.75
2022-11-04T04:14:55.432Z,1.77
2022-11-04T04:16:58.418Z,0.80
2022-11-04T04:19:26.400Z,1.67
2022-11-04T04:21:38.906Z,1.27
2022-11-04T04:23:59.709Z,7.57
2022-11-04T04:26:22.528Z,1.63
2022-11-04T04:28:24.521Z,3.35
2022-11-04T04:30:26.296Z,1.30
2022-11-04T04:32:30.275Z,1.85
2022-11-04T04:34:33.015Z,1.92
2022-11-04T04:36:40.217Z,4.55
2022-11-04T04:39:01.140Z,1.58
2022-11-04T04:41:44.686Z,1.10
2022-11-04T04:44:04.873Z,2.35
2022-11-04T04:46:06.506Z,1.98
2022-11-04T04:48:10.026Z,1.17
2022-11-04T04:50:15.118Z,1.08
2022-11-04T04:52:16.753Z,1.60
2022-11-04T04:54:18.354Z,2.47
2022-11-04T04:56:19.985Z,1.75
2022-11-04T04:58:21.713Z,1.38
2022-11-04T05:00:23.342Z,2.28
2022-11-04T05:02:25.050Z,1.48
2022-11-04T05:04:26.797Z,1.10
2022-11-04T05:06:28.461Z,1.60
2022-11-04T05:08:30.065Z,1.75
2022-11-04T05:10:31.709Z,1.08
2022-11-04T05:12:56.577Z,3.10
2022-11-04T05:14:58.228Z,1.48
2022-11-04T05:16:59.897Z,1.27
2022-11-04T05:19:01.580Z,1.25
2022-11-04T05:21:07.595Z,1.48
2022-11-04T05:23:12.050Z,1.67
2022-11-04T05:25:13.856Z,2.22
2022-11-04T05:27:15.606Z,1.13
2022-11-04T05:29:17.211Z,2.20
2022-11-04T05:31:18.945Z,1.45
2022-11-04T05:33:20.727Z,1.13
2022-11-04T05:35:22.451Z,1.38
2022-11-04T05:37:24.430Z,1.38
2022-11-04T05:39:26.073Z,2.95
2022-11-04T05:41:30.610Z,1.10
2022-11-04T05:43:32.720Z,2.20
2022-11-04T05:45:34.433Z,1.13
2022-11-04T05:47:36.086Z,1.23
2022-11-04T05:49:37.705Z,1.25
2022-11-04T05:51:39.799Z,1.25
2022-11-04T05:53:41.847Z,1.02
2022-11-04T05:55:43.569Z,5.82
2022-11-04T05:57:45.195Z,1.35
2022-11-04T05:59:46.880Z,0.60
2022-11-04T06:01:50.293Z,1.15
2022-11-04T06:03:52.994Z,2.95
2022-11-04T06:05:54.641Z,1.60
2022-11-04T06:07:56.946Z,1.02
2022-11-04T06:09:58.534Z,0.95
2022-11-04T06:12:00.163Z,1.27
2022-11-04T06:14:02.041Z,1.65
2022-11-04T06:16:06.134Z,0.77
2022-11-04T06:18:08.044Z,1.45
2022-11-04T06:20:10.412Z,3.85
2022-11-04T06:22:13.741Z,1.05
2022-11-04T06:24:15.398Z,2.22
2022-11-04T06:26:18.367Z,1.00
2022-11-04T06:28:20.082Z,1.98
2022-11-04T06:30:21.757Z,1.50
2022-11-04T06:32:23.404Z,2.03
2022-11-04T06:34:25.358Z,1.20
2022-11-04T06:36:27.190Z,0.90
2022-11-04T06:38:31.427Z,2.35
2022-11-04T06:40:33.109Z,1.23
2022-11-04T06:42:34.764Z,3.20
2022-11-04T06:44:37.178Z,3.10
2022-11-04T06:46:42.616Z,4.38
2022-11-04T06:48:44.323Z,8.52
2022-11-04T06:50:45.999Z,0.95
2022-11-04T06:52:47.640Z,2.78
2022-11-04T06:54:49.352Z,1.58
2022-11-04T06:56:51.038Z,1.55
2022-11-04T06:58:53.921Z,1.88
2022-11-04T07:00:55.606Z,1.88
2022-11-04T07:02:57.545Z,1.95
2022-11-04T07:04:59.308Z,2.83
2022-11-04T07:07:00.976Z,1.20
2022-11-04T07:09:03.678Z,1.05
2022-11-04T07:11:05.415Z,0.88
2022-11-04T07:13:07.102Z,1.27
2022-11-04T07:15:09.344Z,1.67
2022-11-04T07:17:12.271Z,1.10
2022-11-04T07:19:13.956Z,1.10
2022-11-04T07:21:15.818Z,0.80
2022-11-04T07:23:18.086Z,1.60
2022-11-04T07:25:19.816Z,1.55
2022-11-04T07:27:21.476Z,2.22
2022-11-04T07:29:23.165Z,2.05
2022-11-04T07:31:28.858Z,1.00
2022-11-04T07:33:30.759Z,1.85
2022-11-04T07:35:32.575Z,1.20
2022-11-04T07:37:34.433Z,3.10
2022-11-04T07:39:36.135Z,2.75
2022-11-04T07:41:37.744Z,4.13
2022-11-04T07:43:39.429Z,6.80
2022-11-04T07:45:47.861Z,1.58
2022-11-04T07:47:49.882Z,1.10
2022-11-04T07:49:51.720Z,2.22
2022-11-04T07:51:53.489Z,1.65
2022-11-04T07:53:55.806Z,3.50
2022-11-04T07:55:58.171Z,3.40
2022-11-04T07:57:59.833Z,2.42
2022-11-04T08:00:01.693Z,9.70
2022-11-04T08:02:03.520Z,1.40
2022-11-04T08:04:07.128Z,3.45
2022-11-04T08:06:11.049Z,4.25
2022-11-04T08:08:12.655Z,1.30
2022-11-04T08:10:14.302Z,1.85
2022-11-04T08:12:16.184Z,2.53
2022-11-04T08:14:17.798Z,1.40
2022-11-04T08:16:22.046Z,2.03
2022-11-04T08:18:23.994Z,1.27
2022-11-04T08:20:25.673Z,2.38
2022-11-04T08:22:32.633Z,1.90
2022-11-04T08:24:35.587Z,1.30
2022-11-04T08:26:37.245Z,3.42
2022-11-04T08:28:39.112Z,1.33
2022-11-04T08:30:40.771Z,1.17
2022-11-04T08:32:42.441Z,5.38
2022-11-04T08:34:44.043Z,1.88
2022-11-04T08:36:46.036Z,1.48
2022-11-04T08:38:47.870Z,1.45
2022-11-04T08:40:49.572Z,8.63
2022-11-04T08:42:51.232Z,1.48
2022-11-04T08:44:53.044Z,1.30
2022-11-04T08:46:54.711Z,1.52
2022-11-04T08:48:56.414Z,1.60
2022-11-04T08:51:01.565Z,2.90
2022-11-04T08:53:04.336Z,2.65
2022-11-04T08:55:06.475Z,2.40
2022-11-04T08:57:09.441Z,1.27
2022-11-04T08:59:11.545Z,1.95
2022-11-04T09:01:15.173Z,2.20
2022-11-04T09:03:16.917Z,0.90
2022-11-04T09:05:19.056Z,1.65
2022-11-04T09:07:20.748Z,0.85
2022-11-04T09:09:22.348Z,8.45
2022-11-04T09:11:38.730Z,2.25
2022-11-04T09:13:41.149Z,1.05
2022-11-04T09:15:43.067Z,1.40
2022-11-04T09:17:44.687Z,1.38
2022-11-04T09:19:46.367Z,1.02
2022-11-04T09:21:48.264Z,5.40
2022-11-04T09:23:49.939Z,1.60
2022-11-04T09:25:51.629Z,1.33
2022-11-04T09:27:53.637Z,1.67
2022-11-04T09:29:55.419Z,3.30
2022-11-04T09:31:57.055Z,2.42
2022-11-04T09:33:59.251Z,1.48
2022-11-04T09:36:01.005Z,1.60
2022-11-04T09:38:02.774Z,1.25
2022-11-04T09:40:05.161Z,1.38
2022-11-04T09:42:28.717Z,2.58
2022-11-04T09:44:59.740Z,1.02
2022-11-04T09:47:03.900Z,1.63
2022-11-04T09:49:08.314Z,3.65
2022-11-04T09:51:26.276Z,3.50
2022-11-04T09:53:52.155Z,4.30
2022-11-04T09:56:29.323Z,1.75
2022-11-04T09:58:35.185Z,2.15
2022-11-04T10:00:37.431Z,2.38
2022-11-04T10:03:00.580Z,1.17
2022-11-04T10:05:27.756Z,2.58
2022-11-04T10:07:32.276Z,1.08
2022-11-04T10:09:43.098Z,1.75
2022-11-04T10:12:00.564Z,1.40
2022-11-04T10:14:11.058Z,0.93
2022-11-04T10:16:18.515Z,0.65
2022-11-04T10:18:40.878Z,3.67
2022-11-04T10:20:57.949Z,1.08
2022-11-04T10:23:05.571Z,0.68
2022-11-04T10:25:25.845Z,6.13
2022-11-04T10:27:30.521Z,1.67
2022-11-04T10:29:49.825Z,2.15
2022-11-04T10:31:51.828Z,1.38
2022-11-04T10:34:28.459Z,0.90
2022-11-04T10:36:30.877Z,2.72
2022-11-04T10:38:40.705Z,0.70
2022-11-04T10:40:46.105Z,1.10
2022-11-04T10:42:48.162Z,1.83
2022-11-04T10:44:51.358Z,0.90
2022-11-04T10:47:21.171Z,0.85
2022-11-04T10:49:25.645Z,0.80
2022-11-04T10:51:27.358Z,0.90
2022-11-04T10:53:33.285Z,2.33
2022-11-04T10:55:55.062Z,1.48
2022-11-04T10:57:58.591Z,1.77
2022-11-04T11:00:02.818Z,0.80
2022-11-04T11:02:05.057Z,3.13
2022-11-04T11:04:07.758Z,0.73
2022-11-04T11:06:15.835Z,0.75
2022-11-04T11:08:37.285Z,1.75
2022-11-04T11:10:51.882Z,0.80
2022-11-04T11:13:07.389Z,1.45
2022-11-04T11:15:27.966Z,3.55
2022-11-04T11:17:38.371Z,1.02
2022-11-04T11:19:53.247Z,1.52
2022-11-04T11:21:57.094Z,1.35
2022-11-04T11:24:14.363Z,1.05
2022-11-04T11:26:20.724Z,1.58
2022-11-04T11:28:24.575Z,0.60
2022-11-04T11:30:44.193Z,1.15
2022-11-04T11:32:46.680Z,1.15
2022-11-04T11:34:48.997Z,0.80
2022-11-04T11:36:50.724Z,2.20
2022-11-04T11:39:04.156Z,2.88
2022-11-04T11:41:25.265Z,0.80
2022-11-04T11:43:30.213Z,1.35
2022-11-04T11:45:32.431Z,1.15
2022-11-04T11:47:42.347Z,0.93
2022-11-04T11:49:43.933Z,1.38
2022-11-04T11:51:45.627Z,3.38
2022-11-04T11:54:17.166Z,1.38
2022-11-04T11:56:45.812Z,2.33
2022-11-04T12:01:34.171Z,1.75
2022-11-04T12:11:15.085Z,1.40
2022-11-04T12:13:28.242Z,2.17
2022-11-04T12:15:44.894Z,0.70
2022-11-04T12:18:31.017Z,1.33
2022-11-04T12:24:13.458Z,1.88
2022-11-04T12:26:30.677Z,0.77
2022-11-04T12:28:54.931Z,1.65
2022-11-04T12:31:28.119Z,1.27
2022-11-04T12:33:37.908Z,0.85
2022-11-04T12:36:37.492Z,0.75
2022-11-04T12:38:59.913Z,1.40
2022-11-04T12:41:42.175Z,2.05
2022-11-04T12:44:17.275Z,1.65
2022-11-04T12:46:32.870Z,1.55
2022-11-04T12:48:58.434Z,3.20
2022-11-04T12:51:14.991Z,1.40
2022-11-04T12:53:41.518Z,2.55
2022-11-04T12:56:18.615Z,3.38
2022-11-04T12:58:26.236Z,1.80
2022-11-04T13:00:31.305Z,1.17
2022-11-04T13:02:41.204Z,1.05
2022-11-04T13:04:52.068Z,1.23
2022-11-04T13:07:04.207Z,1.23
2022-11-04T13:09:12.670Z,0.95
2022-11-04T13:11:28.954Z,1.17
2022-11-04T13:13:35.027Z,1.75
2022-11-04T13:15:47.218Z,2.67
2022-11-04T13:17:56.596Z,1.95
2022-11-04T13:20:21.497Z,0.98
2022-11-04T13:22:29.906Z,1.42
2022-11-04T13:24:35.180Z,0.95
2022-11-04T13:26:37.679Z,1.10
2022-11-04T13:28:41.930Z,0.80
2022-11-04T13:31:04.927Z,1.13
2022-11-04T13:33:31.694Z,2.45
2022-11-04T13:35:58.836Z,1.30
2022-11-04T13:38:08.792Z,0.80
2022-11-04T13:40:56.592Z,2.08
2022-11-04T13:43:30.201Z,4.00
2022-11-04T13:45:32.208Z,2.35
2022-11-04T13:47:37.628Z,1.10
2022-11-04T13:49:39.267Z,2.67
2022-11-04T13:51:47.001Z,1.77
2022-11-04T13:53:56.759Z,1.85
2022-11-04T13:56:09.531Z,2.35
2022-11-04T13:58:25.918Z,1.08
2022-11-04T14:00:29.157Z,1.35
2022-11-04T14:03:24.728Z,1.15
2022-11-04T14:05:32.381Z,3.90
2022-11-04T14:07:59.348Z,0.90
2022-11-04T14:10:01.177Z,1.45
2022-11-04T14:12:14.271Z,0.77
2022-11-04T14:14:20.661Z,1.48
2022-11-04T14:16:25.532Z,1.88
2022-11-04T14:18:37.385Z,1.40
2022-11-04T14:21:07.900Z,1.25
2022-11-04T14:23:23.249Z,1.00
2022-11-04T14:26:00.765Z,1.23
2022-11-04T14:28:09.814Z,3.20
2022-11-04T14:30:33.358Z,2.22
2022-11-04T14:32:41.086Z,1.75
2022-11-04T14:34:44.622Z,0.98
2022-11-04T14:36:46.303Z,2.10
2022-11-04T14:39:06.705Z,1.42
2022-11-04T14:41:22.722Z,0.80
2022-11-04T14:43:32.110Z,1.35
2022-11-04T14:45:39.112Z,0.90
2022-11-04T14:47:43.039Z,1.38
2022-11-04T14:49:47.106Z,1.13
2022-11-04T14:51:49.825Z,4.60
2022-11-04T14:53:52.992Z,3.20
2022-11-04T14:56:21.911Z,1.55
2022-11-04T14:58:28.138Z,1.77
2022-11-04T15:00:47.625Z,2.33
2022-11-04T15:04:04.636Z,2.22
2022-11-04T15:05:50.894Z,1.98
2022-11-04T15:07:52.964Z,3.63
2022-11-04T15:09:54.590Z,12.80
2022-11-04T15:12:29.528Z,2.75
2022-11-04T15:14:31.224Z,2.45
2022-11-04T15:16:32.833Z,1.83
2022-11-04T15:18:34.496Z,5.53
2022-11-04T15:20:41.112Z,7.32
2022-11-04T15:22:43.629Z,4.10
2022-11-04T15:24:45.463Z,5.47
2022-11-04T15:26:52.068Z,1.92
2022-11-04T15:28:54.621Z,2.75
2022-11-04T15:31:11.484Z,2.50
2022-11-04T15:33:15.841Z,2.00
2022-11-04T15:35:17.907Z,2.17
2022-11-04T15:37:19.991Z,3.13
2022-11-04T15:39:33.895Z,1.88
2022-11-04T15:41:57.056Z,1.55
2022-11-04T15:43:59.195Z,3.30
2022-11-04T15:46:01.653Z,1.55
2022-11-04T15:48:23.140Z,1.45
2022-11-04T15:50:26.130Z,1.30
2022-11-04T15:52:29.052Z,4.22
2022-11-04T15:54:36.751Z,1.20
2022-11-04T15:56:52.127Z,2.03
2022-11-04T15:58:55.437Z,1.08
2022-11-04T16:00:57.634Z,5.10
2022-11-04T16:03:00.320Z,1.65
2022-11-04T16:05:10.820Z,1.05
2022-11-04T16:07:12.436Z,1.75
2022-11-04T16:09:14.221Z,2.25
2022-11-04T16:11:20.060Z,2.42
2022-11-04T16:13:24.228Z,1.30
2022-11-04T16:15:43.628Z,1.23
2022-11-04T16:17:45.647Z,1.38
2022-11-04T16:19:49.700Z,1.38
2022-11-04T16:22:09.093Z,1.70
2022-11-04T16:24:17.706Z,1.50
2022-11-04T16:26:25.771Z,2.40
2022-11-04T16:28:40.449Z,1.60
2022-11-04T16:30:58.990Z,3.03
2022-11-04T16:33:10.558Z,3.55
2022-11-04T16:35:27.270Z,2.97
2022-11-04T16:37:30.136Z,2.88
2022-11-04T16:39:32.674Z,2.65
2022-11-04T16:41:36.887Z,2.42
2022-11-04T16:43:41.153Z,4.03
2022-11-04T16:45:49.495Z,3.00
2022-11-04T16:47:55.437Z,4.57
2022-11-04T16:50:01.245Z,5.93
2022-11-04T16:52:03.599Z,6.78
2022-11-04T16:54:05.329Z,10.75
2022-11-04T16:56:07.526Z,8.02
2022-11-04T16:58:17.239Z,9.80
2022-11-04T17:00:22.620Z,9.38
2022-11-04T17:02:24.445Z,10.70
2022-11-04T17:04:26.193Z,9.45
2022-11-04T17:06:27.857Z,6.75
2022-11-04T17:08:29.422Z,9.70
2022-11-04T17:10:31.127Z,8.07
2022-11-04T17:12:32.743Z,8.82
2022-11-04T17:14:35.123Z,7.50
2022-11-04T17:16:36.707Z,3.15
2022-11-04T17:18:38.355Z,6.65
2022-11-04T17:20:41.530Z,4.55
2022-11-04T17:22:43.237Z,3.60
2022-11-04T17:24:44.941Z,2.13
2022-11-04T17:26:46.561Z,2.80
2022-11-04T17:28:48.143Z,4.00
2022-11-04T17:30:49.888Z,2.08
2022-11-04T17:32:51.770Z,2.60
2022-11-04T17:34:53.423Z,5.47
2022-11-04T17:36:55.059Z,3.13
2022-11-04T17:38:57.004Z,1.73
2022-11-04T17:41:17.254Z,1.92
2022-11-04T17:43:37.397Z,3.08
2022-11-04T17:45:39.743Z,5.13
2022-11-04T17:47:41.420Z,5.57
2022-11-04T17:49:43.078Z,5.90
2022-11-04T17:51:50.185Z,4.80
2022-11-04T17:53:51.913Z,4.25
2022-11-04T17:55:53.550Z,5.25
2022-11-04T17:57:55.498Z,5.55
2022-11-04T17:59:57.369Z,6.65
2022-11-04T18:01:59.187Z,6.65
2022-11-04T18:04:01.133Z,6.85
2022-11-04T18:06:04.464Z,6.10
2022-11-04T18:08:06.151Z,6.65
2022-11-04T18:10:08.112Z,6.13
2022-11-04T18:12:28.411Z,6.20
2022-11-04T18:14:30.639Z,8.00
2022-11-04T18:16:32.312Z,5.63
2022-11-04T18:18:33.926Z,6.35
2022-11-04T18:20:35.581Z,6.07
2022-11-04T18:22:38.375Z,6.30
2022-11-04T18:24:40.875Z,7.18
2022-11-04T18:26:42.809Z,5.97
2022-11-04T18:28:44.604Z,5.25
2022-11-04T18:30:46.238Z,5.32
2022-11-04T18:32:47.846Z,4.25
2022-11-04T18:34:50.484Z,4.57
2022-11-04T18:36:52.111Z,4.40
2022-11-04T18:38:53.751Z,6.13
2022-11-04T18:40:55.300Z,5.57
2022-11-04T18:42:57.172Z,8.57
2022-11-04T18:44:58.809Z,4.53
2022-11-04T18:47:00.430Z,4.40
2022-11-04T18:49:02.099Z,8.90
2022-11-04T18:51:05.615Z,4.30
2022-11-04T18:53:07.702Z,6.88
2022-11-04T18:55:09.978Z,4.40
2022-11-04T18:57:12.135Z,4.63
2022-11-04T18:59:15.178Z,4.82
2022-11-04T19:01:20.766Z,5.25
2022-11-04T19:03:23.537Z,3.70
2022-11-04T19:05:25.703Z,3.10
2022-11-04T19:07:27.336Z,3.47
2022-11-04T19:12:10.681Z,3.42
2022-11-04T19:14:15.056Z,3.90
2022-11-04T19:16:16.716Z,5.43
2022-11-04T19:18:18.599Z,4.05
2022-11-04T19:20:20.309Z,4.90
2022-11-04T19:22:21.947Z,4.10
2022-11-04T19:24:23.632Z,4.38
2022-11-04T19:26:27.660Z,6.22
2022-11-04T19:28:44.512Z,5.65
2022-11-04T19:31:02.048Z,3.38
2022-11-04T19:33:03.744Z,10.82
2022-11-04T19:35:05.837Z,4.10
2022-11-04T19:37:07.398Z,4.88
2022-11-04T19:39:09.212Z,3.85
2022-11-04T19:41:34.372Z,3.67
2022-11-04T19:43:36.064Z,5.15
2022-11-04T19:45:39.703Z,3.95
2022-11-04T19:47:41.355Z,4.10
2022-11-04T19:49:43.110Z,3.92
2022-11-04T19:51:44.996Z,3.47
2022-11-04T19:53:46.920Z,4.30
2022-11-04T19:55:53.851Z,4.93
2022-11-04T19:57:55.424Z,5.22
2022-11-04T19:59:57.434Z,4.90
2022-11-04T20:01:59.489Z,5.47
2022-11-04T20:04:02.905Z,5.00
2022-11-04T20:06:06.827Z,8.30
2022-11-04T20:08:09.240Z,4.60
2022-11-04T20:10:11.518Z,3.50
2022-11-04T20:12:31.893Z,4.85
2022-11-04T20:14:33.592Z,3.28
2022-11-04T20:16:39.566Z,4.63
2022-11-04T20:18:41.381Z,4.22
2022-11-04T20:20:43.566Z,5.53
2022-11-04T20:22:45.214Z,4.57
2022-11-04T20:24:46.984Z,8.93
2022-11-04T20:26:48.603Z,5.97
2022-11-04T20:28:58.422Z,6.57
2022-11-04T20:31:00.298Z,6.63
2022-11-04T20:33:02.613Z,7.32
2022-11-04T20:35:04.503Z,6.75
2022-11-04T20:37:06.157Z,5.47
2022-11-04T20:39:20.129Z,6.50
2022-11-04T20:41:22.050Z,6.53
2022-11-04T20:43:23.912Z,5.55
2022-11-04T20:45:25.524Z,6.53
2022-11-04T20:47:27.152Z,5.68
2022-11-04T20:49:28.801Z,5.07
2022-11-04T20:51:32.808Z,5.50
2022-11-04T20:53:34.551Z,4.93
2022-11-04T20:55:39.699Z,4.72
2022-11-04T20:57:41.406Z,6.60
2022-11-04T20:59:43.133Z,5.30
2022-11-04T21:01:46.730Z,5.68
2022-11-04T21:03:48.569Z,5.70
2022-11-04T21:05:50.207Z,6.60
2022-11-04T21:07:51.868Z,5.40
2022-11-04T21:09:53.562Z,3.85
2022-11-04T21:11:56.937Z,5.75
2022-11-04T21:13:58.603Z,6.35
2022-11-04T21:16:01.041Z,3.20
2022-11-04T21:18:02.637Z,7.07
2022-11-04T21:20:04.729Z,3.92
2022-11-04T21:22:06.373Z,4.50
2022-11-04T21:24:08.100Z,5.32
2022-11-04T21:26:16.472Z,5.30
2022-11-04T21:28:18.339Z,5.70
2022-11-04T21:30:20.035Z,4.72
2022-11-04T21:32:21.630Z,8.00
2022-11-04T21:34:23.737Z,6.10
2022-11-04T21:36:25.538Z,5.07
2022-11-04T21:38:27.378Z,8.40
2022-11-04T21:40:29.243Z,5.18
2022-11-04T21:42:31.216Z,4.20
2022-11-04T21:44:32.898Z,5.55
2022-11-04T21:46:35.283Z,5.60
2022-11-04T21:48:38.003Z,5.70
2022-11-04T21:50:39.674Z,5.30
2022-11-04T21:52:41.672Z,4.90
2022-11-04T21:54:43.261Z,5.65
2022-11-04T21:56:45.641Z,5.38
2022-11-04T21:58:47.709Z,4.82
2022-11-04T22:00:56.463Z,4.15
2022-11-04T22:02:58.388Z,3.83
2022-11-04T22:05:00.269Z,5.05
2022-11-04T22:07:01.912Z,3.47
2022-11-04T22:09:06.049Z,4.25
2022-11-04T22:11:12.967Z,4.10
2022-11-04T22:13:14.615Z,4.35
2022-11-04T22:15:36.418Z,4.40
2022-11-04T22:17:38.331Z,4.82
2022-11-04T22:19:40.458Z,5.22
2022-11-04T22:21:44.409Z,4.68
2022-11-04T22:23:46.242Z,4.45
2022-11-04T22:25:50.251Z,3.83
2022-11-04T22:27:52.207Z,4.10
2022-11-04T22:29:53.808Z,5.03
2022-11-04T22:31:55.430Z,4.40
2022-11-04T22:33:57.996Z,4.32
2022-11-04T22:36:00.048Z,12.00
2022-11-04T22:38:01.692Z,4.25
2022-11-04T22:40:03.861Z,4.50
2022-11-04T22:42:05.608Z,5.45
2022-11-04T22:44:07.459Z,3.95
2022-11-04T22:46:22.544Z,4.43
2022-11-04T22:48:24.861Z,4.32
2022-11-04T22:50:26.540Z,6.32
2022-11-04T22:52:28.274Z,5.68
2022-11-04T22:54:29.952Z,4.10
2022-11-04T22:56:31.606Z,5.25
2022-11-04T22:58:33.537Z,4.25
2022-11-04T23:00:35.187Z,4.75
2022-11-04T23:02:37.526Z,4.70
2022-11-04T23:04:40.487Z,4.70
2022-11-04T23:06:42.213Z,7.07
2022-11-04T23:08:45.143Z,8.85
2022-11-04T23:11:05.666Z,10.20
2022-11-04T23:13:28.286Z,8.27
2022-11-04T23:15:48.575Z,6.47
2022-11-04T23:18:08.735Z,5.15
2022-11-04T23:20:14.067Z,4.70
2022-11-04T23:22:34.355Z,4.28
2022-11-04T23:24:54.689Z,3.97
2022-11-04T23:26:57.077Z,5.72
2022-11-04T23:29:17.108Z,5.38
2022-11-04T23:31:18.848Z,3.83
2022-11-04T23:33:40.474Z,4.10
2022-11-04T23:36:03.745Z,4.70
2022-11-04T23:38:05.370Z,4.72
2022-11-04T23:40:08.289Z,5.75
2022-11-04T23:42:18.530Z,5.50
2022-11-04T23:44:38.566Z,5.57
2022-11-04T23:46:58.673Z,6.18
2022-11-04T23:49:26.668Z,7.95
2022-11-04T23:51:47.013Z,7.72
2022-11-04T23:54:07.208Z,6.60
2022-11-04T23:56:29.713Z,5.85
2022-11-04T23:58:49.871Z,6.60
